Time;durP1;ratioP1;P1;durP2;ratioP2;P2;SDS_P1;SDS_P2;PMS_P1;PMS_P2;Temp;Humidity;BMP_temperature;BMP_pressure;BME280_temperature;BME280_humidity;BME280_pressure;Samples;Min_cycle;Max_cycle;Signal;HPM_P1;HPM_P2
2023/03/20 00:12:56;;;;;;;68.90;34.80;;;;;;;10.97;62.29;100294.65;682183;1266;139291;-85
2023/03/20 00:27:59;;;;;;;56.90;27.70;;;;;;;10.69;62.62;100290.50;682322;1261;139352;-80
2023/03/20 00:43:03;;;;;;;50.50;25.40;;;;;;;10.47;63.17;100281.36;682375;1260;139163;-79
2023/03/20 00:58:10;;;;;;;102.10;41.70;;;;;;;10.07;63.40;100272.26;682204;1261;139027;-80
2023/03/20 01:13:25;;;;;;;82.10;37.00;;;;;;;9.91;64.20;100268.48;682221;1264;139028;-81
2023/03/20 01:28:30;;;;;;;80.60;36.10;;;;;;;9.76;64.26;100269.78;682066;1261;138819;-82
2023/03/20 01:43:34;;;;;;;96.90;40.80;;;;;;;9.61;64.94;100250.95;682143;1261;138617;-79
2023/03/20 01:58:44;;;;;;;101.00;46.20;;;;;;;9.50;65.05;100248.39;682093;1260;138789;-82
2023/03/20 02:13:51;;;;;;;102.40;45.10;;;;;;;9.22;65.15;100251.44;682180;1261;139017;-80
2023/03/20 02:29:27;;;;;;;54.90;27.00;;;;;;;9.08;65.32;100247.98;682063;1260;138773;-81
2023/03/20 02:44:52;;;;;;;141.00;59.40;;;;;;;8.92;65.12;100231.21;682206;1261;139377;-83
2023/03/20 03:00:12;;;;;;;114.30;48.20;;;;;;;8.84;65.27;100212.43;682145;1264;138871;-81
2023/03/20 03:15:24;;;;;;;74.40;33.90;;;;;;;8.81;65.66;100201.86;682260;1262;138540;-80
2023/03/20 03:30:31;;;;;;;71.40;32.80;;;;;;;8.69;65.55;100194.33;681989;1260;138891;-81
2023/03/20 03:45:45;;;;;;;70.60;33.80;;;;;;;8.44;65.93;100191.77;682197;1262;145234;-79
2023/03/20 04:00:51;;;;;;;89.90;45.90;;;;;;;8.33;66.56;100188.83;682351;1260;138897;-82
2023/03/20 04:15:54;;;;;;;115.10;53.20;;;;;;;8.19;67.30;100179.67;682284;1263;138879;-81
2023/03/20 04:31:01;;;;;;;84.10;41.10;;;;;;;8.33;67.19;100181.52;682075;1264;138668;-80
2023/03/20 04:46:12;;;;;;;69.00;35.50;;;;;;;8.06;67.17;100186.93;682098;1265;138770;-80
2023/03/20 05:01:16;;;;;;;104.40;55.90;;;;;;;7.97;67.94;100179.09;682155;1265;138930;-80
2023/03/20 05:16:20;;;;;;;91.20;43.80;;;;;;;8.23;68.20;100169.39;682013;1265;139257;-80
2023/03/20 05:31:46;;;;;;;87.70;42.00;;;;;;;8.25;68.24;100174.48;682063;1263;137916;-83
2023/03/20 05:46:59;;;;;;;92.20;44.10;;;;;;;8.36;68.08;100187.14;682135;1259;138536;-80
2023/03/20 06:02:22;;;;;;;86.80;41.90;;;;;;;8.81;68.52;100184.78;682286;1264;138773;-81
2023/03/20 06:17:31;;;;;;;91.70;50.10;;;;;;;9.37;69.17;100182.45;682129;1265;139146;-80
2023/03/20 06:32:37;;;;;;;135.80;58.30;;;;;;;9.75;68.66;100185.66;682280;1264;139013;-80
2023/03/20 06:47:42;;;;;;;129.80;59.80;;;;;;;10.15;68.67;100188.20;682175;1264;139118;-82
2023/03/20 07:02:46;;;;;;;323.50;157.70;;;;;;;10.71;68.38;100175.20;682224;1265;139284;-81
2023/03/20 07:17:50;;;;;;;103.70;54.30;;;;;;;11.58;68.98;100186.48;682045;1262;140073;-81
2023/03/20 07:32:53;;;;;;;109.50;55.70;;;;;;;12.11;68.85;100196.55;682285;1265;139027;-83
2023/03/20 07:47:58;;;;;;;84.60;46.50;;;;;;;12.98;68.72;100204.23;682080;1263;139722;-82
2023/03/20 08:03:02;;;;;;;70.50;39.90;;;;;;;13.68;67.63;100193.80;681942;1265;139012;-84
2023/03/20 08:18:06;;;;;;;151.70;79.70;;;;;;;14.12;66.46;100191.89;682020;1265;139191;-82
2023/03/20 08:33:09;;;;;;;81.40;46.70;;;;;;;14.33;66.28;100199.27;681977;1265;139210;-83
2023/03/20 08:48:13;;;;;;;86.50;46.20;;;;;;;14.56;66.22;100206.38;681962;1265;138826;-80
2023/03/20 09:03:19;;;;;;;75.70;41.80;;;;;;;14.71;66.89;100209.19;682202;1265;138859;-82
2023/03/20 09:18:24;;;;;;;69.30;36.90;;;;;;;14.40;69.22;100222.58;682140;1263;139087;-81
2023/03/20 09:33:28;;;;;;;71.60;38.10;;;;;;;14.43;70.60;100220.30;682236;1261;138921;-82
2023/03/20 09:48:39;;;;;;;62.30;33.50;;;;;;;14.77;71.71;100221.23;681841;1266;139708;-81
2023/03/20 10:03:54;;;;;;;74.20;42.70;;;;;;;15.05;72.58;100218.79;681920;1265;139998;-81
2023/03/20 10:19:05;;;;;;;53.10;31.50;;;;;;;15.45;72.63;100214.27;682063;1264;139111;-81
2023/03/20 10:34:26;;;;;;;52.20;33.20;;;;;;;15.77;72.02;100210.44;682024;1266;139495;-82
2023/03/20 10:49:45;;;;;;;55.30;31.30;;;;;;;15.84;72.38;100202.08;682283;1266;138916;-81
2023/03/20 11:04:49;;;;;;;51.10;31.80;;;;;;;15.54;73.89;100195.52;682065;1263;139231;-82
2023/03/20 11:19:52;;;;;;;47.90;30.00;;;;;;;15.20;77.19;100189.94;682233;1262;139040;-81
2023/03/20 11:35:08;;;;;;;142.90;70.40;;;;;;;14.81;80.40;100189.25;682025;1263;139183;-81
2023/03/20 11:50:33;;;;;;;69.40;40.50;;;;;;;14.79;83.19;100177.16;682052;1260;139352;-82
2023/03/20 12:05:38;;;;;;;57.10;35.10;;;;;;;15.04;84.89;100185.45;682093;1266;139511;-81
2023/03/20 12:21:07;;;;;;;98.40;57.10;;;;;;;15.11;86.17;100167.17;682179;1260;140577;-82
2023/03/20 12:36:24;;;;;;;52.30;34.60;;;;;;;15.22;87.41;100159.52;682224;1267;139206;-81
2023/03/20 12:51:56;;;;;;;46.20;30.90;;;;;;;15.58;87.50;100143.23;682218;1260;139160;-81
2023/03/20 13:07:02;;;;;;;44.50;26.50;;;;;;;16.06;87.02;100139.09;682329;1260;139446;-82
2023/03/20 13:23:00;;;;;;;51.50;25.20;;;;;;;17.33;83.44;100129.80;682071;1260;139467;-83
2023/03/20 13:38:28;;;;;;;33.60;20.80;;;;;;;18.22;78.59;100115.70;682282;1264;140020;-83
2023/03/20 13:53:52;;;;;;;30.40;21.30;;;;;;;17.76;76.98;100101.77;682218;1266;139447;-84
2023/03/20 14:08:57;;;;;;;45.40;30.90;;;;;;;20.63;69.44;100087.69;682434;1264;139142;-84
2023/03/20 14:24:05;;;;;;;30.20;22.10;;;;;;;22.51;66.37;100081.59;682263;1264;138633;-89
2023/03/20 14:39:33;;;;;;;32.40;25.40;;;;;;;27.08;54.38;100068.54;682411;1261;138361;-88
2023/03/20 14:54:40;;;;;;;27.10;19.30;;;;;;;20.42;60.30;100049.23;682108;1264;138837;-87
2023/03/20 15:09:47;;;;;;;28.00;19.30;;;;;;;19.16;65.91;100050.67;682207;1264;139096;-85
2023/03/20 15:24:52;;;;;;;112.30;65.30;;;;;;;18.82;67.65;100060.73;682028;1263;140459;-86
2023/03/20 15:39:59;;;;;;;77.30;38.70;;;;;;;17.51;71.70;100049.80;681111;1264;1870608;-85
2023/03/20 15:55:16;;;;;;;76.10;41.50;;;;;;;16.94;74.35;100051.97;682397;1260;139514;-83
2023/03/20 16:10:27;;;;;;;181.90;81.70;;;;;;;16.61;75.26;100065.02;682098;1264;139211;-85
2023/03/20 16:25:31;;;;;;;74.90;38.90;;;;;;;16.45;75.34;100058.64;682223;1260;139488;-85
2023/03/20 16:40:35;;;;;;;92.50;45.00;;;;;;;16.29;75.82;100060.80;682273;1263;139222;-85
2023/03/20 16:55:45;;;;;;;47.60;28.00;;;;;;;16.12;76.96;100064.89;682408;1264;139507;-85
2023/03/20 17:10:57;;;;;;;47.20;26.90;;;;;;;15.59;78.70;100081.62;682261;1267;139583;-85
2023/03/20 17:26:01;;;;;;;49.20;32.00;;;;;;;15.16;81.02;100106.88;682272;1266;138974;-86
2023/03/20 17:41:12;;;;;;;47.80;28.30;;;;;;;14.94;81.62;100137.88;682355;1260;139583;-87
2023/03/20 17:56:16;;;;;;;105.40;44.20;;;;;;;14.68;80.36;100152.48;682223;1261;139537;-87
2023/03/20 18:11:20;;;;;;;59.20;32.40;;;;;;;14.76;78.65;100160.34;682165;1263;139825;-87
2023/03/20 18:26:26;;;;;;;90.10;46.30;;;;;;;14.76;78.77;100159.48;682373;1260;139324;-88
2023/03/20 18:41:31;;;;;;;89.20;40.90;;;;;;;14.74;78.61;100166.92;682409;1262;139169;-85
2023/03/20 18:56:36;;;;;;;99.00;49.70;;;;;;;14.40;77.38;100165.44;682199;1264;139271;-88
2023/03/20 19:11:40;;;;;;;30.00;17.20;;;;;;;14.31;76.53;100166.69;682351;1262;139249;-87
2023/03/20 19:26:45;;;;;;;81.60;37.20;;;;;;;14.17;76.51;100155.01;682221;1262;139968;-87
2023/03/20 19:41:49;;;;;;;177.60;68.10;;;;;;;14.06;76.36;100159.27;682330;1262;140826;-87
2023/03/20 19:56:53;;;;;;;42.20;21.80;;;;;;;13.56;77.71;100164.98;682195;1260;139640;-87
2023/03/20 20:11:57;;;;;;;47.80;25.00;;;;;;;13.48;78.79;100165.48;682304;1262;139325;-89
2023/03/20 20:27:03;;;;;;;30.60;15.00;;;;;;;13.19;80.03;100155.88;682246;1261;139873;-86
2023/03/20 20:42:20;;;;;;;;;;;;;;;12.91;81.42;100157.66;682230;1262;139525;-88
2023/03/20 20:57:23;;;;;;;29.90;14.90;;;;;;;12.72;82.39;100162.63;682286;1264;125459;-85
2023/03/20 21:12:27;;;;;;;39.20;17.60;;;;;;;12.63;82.82;100161.09;682340;1264;139226;-85
2023/03/20 21:27:42;;;;;;;28.50;14.10;;;;;;;12.44;84.01;100161.88;682262;1263;139542;-86
2023/03/20 21:42:47;;;;;;;27.70;14.70;;;;;;;12.44;84.49;100166.42;682360;1260;139287;-88
2023/03/20 21:57:51;;;;;;;21.50;11.00;;;;;;;12.30;85.86;100170.12;682227;1263;139260;-93
2023/03/20 22:13:15;;;;;;;11.40;5.60;;;;;;;11.99;84.99;100183.54;682525;1263;139112;-89
2023/03/20 22:28:38;;;;;;;11.60;6.40;;;;;;;11.80;84.35;100175.84;682307;1264;140012;-87
2023/03/20 22:44:02;;;;;;;9.20;4.70;;;;;;;11.76;84.33;100179.06;682293;1264;139902;-87
2023/03/20 22:59:26;;;;;;;7.60;5.00;;;;;;;11.65;85.26;100188.49;682214;1265;138918;-87
2023/03/20 23:14:29;;;;;;;9.40;5.60;;;;;;;11.49;85.73;100182.80;682404;1264;139003;-87
2023/03/20 23:29:47;;;;;;;5.30;4.00;;;;;;;11.28;87.96;100187.73;682331;1265;138553;-89
2023/03/20 23:44:50;;;;;;;9.40;5.20;;;;;;;11.14;88.46;100167.60;682093;1265;139589;-86
